sensor_id;sensor_type;location;lat;lon;timestamp;P1;durP1;ratioP1;P2;durP2;ratioP2
43793;SDS011;29414;44.798;20.366;2023-06-14T00:01:24;8.98;;;7.93;;
43793;SDS011;29414;44.798;20.366;2023-06-14T00:05:26;8.57;;;5.78;;
43793;SDS011;29414;44.798;20.366;2023-06-14T00:09:26;10.02;;;5.20;;
43793;SDS011;29414;44.798;20.366;2023-06-14T00:13:27;5.88;;;3.67;;
43793;SDS011;29414;44.798;20.366;2023-06-14T00:17:27;9.15;;;4.40;;
43793;SDS011;29414;44.798;20.366;2023-06-14T00:21:31;8.50;;;7.18;;
43793;SDS011;29414;44.798;20.366;2023-06-14T00:25:32;8.90;;;7.38;;
43793;SDS011;29414;44.798;20.366;2023-06-14T00:29:32;7.15;;;5.55;;
43793;SDS011;29414;44.798;20.366;2023-06-14T00:33:32;6.94;;;4.28;;
43793;SDS011;29414;44.798;20.366;2023-06-14T00:37:32;5.64;;;4.98;;
43793;SDS011;29414;44.798;20.366;2023-06-14T00:41:33;4.96;;;4.46;;
43793;SDS011;29414;44.798;20.366;2023-06-14T00:45:33;10.82;;;9.73;;
43793;SDS011;29414;44.798;20.366;2023-06-14T00:49:35;13.70;;;9.90;;
43793;SDS011;29414;44.798;20.366;2023-06-14T00:53:36;14.73;;;10.38;;
43793;SDS011;29414;44.798;20.366;2023-06-14T00:57:36;12.98;;;10.85;;
43793;SDS011;29414;44.798;20.366;2023-06-14T01:01:37;12.10;;;10.50;;
43793;SDS011;29414;44.798;20.366;2023-06-14T01:05:38;14.68;;;11.48;;
43793;SDS011;29414;44.798;20.366;2023-06-14T01:13:58;6.95;;;6.25;;
43793;SDS011;29414;44.798;20.366;2023-06-14T01:17:59;8.07;;;5.93;;
43793;SDS011;29414;44.798;20.366;2023-06-14T01:22:02;6.70;;;4.90;;
43793;SDS011;29414;44.798;20.366;2023-06-14T01:26:03;7.28;;;4.88;;
43793;SDS011;29414;44.798;20.366;2023-06-14T01:30:03;8.73;;;5.20;;
43793;SDS011;29414;44.798;20.366;2023-06-14T01:34:05;8.80;;;5.57;;
43793;SDS011;29414;44.798;20.366;2023-06-14T01:38:06;8.20;;;4.90;;
43793;SDS011;29414;44.798;20.366;2023-06-14T01:42:06;7.00;;;5.10;;
43793;SDS011;29414;44.798;20.366;2023-06-14T01:46:07;9.70;;;5.60;;
43793;SDS011;29414;44.798;20.366;2023-06-14T01:50:08;6.93;;;6.25;;
43793;SDS011;29414;44.798;20.366;2023-06-14T01:54:08;15.05;;;9.13;;
43793;SDS011;29414;44.798;20.366;2023-06-14T01:58:09;10.27;;;7.75;;
43793;SDS011;29414;44.798;20.366;2023-06-14T02:02:09;10.73;;;7.18;;
43793;SDS011;29414;44.798;20.366;2023-06-14T02:06:10;9.60;;;6.95;;
43793;SDS011;29414;44.798;20.366;2023-06-14T02:10:10;8.07;;;5.18;;
43793;SDS011;29414;44.798;20.366;2023-06-14T02:14:11;9.13;;;5.93;;
43793;SDS011;29414;44.798;20.366;2023-06-14T02:18:11;8.38;;;6.20;;
43793;SDS011;29414;44.798;20.366;2023-06-14T02:22:12;6.38;;;5.50;;
43793;SDS011;29414;44.798;20.366;2023-06-14T02:26:14;13.15;;;6.35;;
43793;SDS011;29414;44.798;20.366;2023-06-14T02:30:15;10.80;;;6.15;;
43793;SDS011;29414;44.798;20.366;2023-06-14T02:34:15;7.03;;;5.68;;
43793;SDS011;29414;44.798;20.366;2023-06-14T02:38:20;7.55;;;5.70;;
43793;SDS011;29414;44.798;20.366;2023-06-14T02:42:20;11.38;;;6.45;;
43793;SDS011;29414;44.798;20.366;2023-06-14T02:46:21;7.43;;;5.13;;
43793;SDS011;29414;44.798;20.366;2023-06-14T02:50:21;7.20;;;6.10;;
43793;SDS011;29414;44.798;20.366;2023-06-14T02:54:21;6.78;;;6.13;;
43793;SDS011;29414;44.798;20.366;2023-06-14T02:58:21;10.18;;;6.07;;
43793;SDS011;29414;44.798;20.366;2023-06-14T03:02:24;8.07;;;6.68;;
43793;SDS011;29414;44.798;20.366;2023-06-14T03:06:26;8.15;;;6.70;;
43793;SDS011;29414;44.798;20.366;2023-06-14T03:10:29;8.73;;;6.43;;
43793;SDS011;29414;44.798;20.366;2023-06-14T03:14:30;8.68;;;7.03;;
43793;SDS011;29414;44.798;20.366;2023-06-14T03:18:30;10.10;;;6.78;;
43793;SDS011;29414;44.798;20.366;2023-06-14T03:22:35;10.82;;;6.72;;
43793;SDS011;29414;44.798;20.366;2023-06-14T03:26:35;11.45;;;7.05;;
43793;SDS011;29414;44.798;20.366;2023-06-14T03:30:37;8.43;;;6.57;;
43793;SDS011;29414;44.798;20.366;2023-06-14T03:34:37;11.63;;;7.22;;
43793;SDS011;29414;44.798;20.366;2023-06-14T03:38:38;12.02;;;6.82;;
43793;SDS011;29414;44.798;20.366;2023-06-14T03:42:39;7.78;;;6.00;;
43793;SDS011;29414;44.798;20.366;2023-06-14T03:46:39;10.00;;;6.63;;
43793;SDS011;29414;44.798;20.366;2023-06-14T03:50:40;8.55;;;5.80;;
43793;SDS011;29414;44.798;20.366;2023-06-14T03:54:40;7.55;;;5.50;;
43793;SDS011;29414;44.798;20.366;2023-06-14T03:58:40;8.77;;;6.00;;
43793;SDS011;29414;44.798;20.366;2023-06-14T04:02:41;18.48;;;6.80;;
43793;SDS011;29414;44.798;20.366;2023-06-14T04:06:41;19.52;;;6.15;;
43793;SDS011;29414;44.798;20.366;2023-06-14T04:10:42;14.50;;;6.22;;
43793;SDS011;29414;44.798;20.366;2023-06-14T04:14:43;15.30;;;6.38;;
43793;SDS011;29414;44.798;20.366;2023-06-14T04:18:43;14.48;;;5.38;;
43793;SDS011;29414;44.798;20.366;2023-06-14T04:22:43;13.07;;;5.75;;
43793;SDS011;29414;44.798;20.366;2023-06-14T04:26:44;11.80;;;5.57;;
43793;SDS011;29414;44.798;20.366;2023-06-14T04:30:51;14.57;;;6.07;;
43793;SDS011;29414;44.798;20.366;2023-06-14T04:34:53;9.20;;;5.93;;
43793;SDS011;29414;44.798;20.366;2023-06-14T04:38:54;9.18;;;6.20;;
43793;SDS011;29414;44.798;20.366;2023-06-14T04:42:54;8.07;;;5.40;;
43793;SDS011;29414;44.798;20.366;2023-06-14T04:46:56;9.43;;;6.47;;
43793;SDS011;29414;44.798;20.366;2023-06-14T04:50:56;7.97;;;5.70;;
43793;SDS011;29414;44.798;20.366;2023-06-14T04:54:56;12.40;;;7.10;;
43793;SDS011;29414;44.798;20.366;2023-06-14T04:58:57;11.07;;;5.65;;
43793;SDS011;29414;44.798;20.366;2023-06-14T05:02:58;10.94;;;5.44;;
43793;SDS011;29414;44.798;20.366;2023-06-14T05:06:58;12.85;;;6.53;;
43793;SDS011;29414;44.798;20.366;2023-06-14T05:10:58;6.90;;;4.78;;
43793;SDS011;29414;44.798;20.366;2023-06-14T05:14:58;6.70;;;4.43;;
43793;SDS011;29414;44.798;20.366;2023-06-14T05:18:59;8.63;;;3.78;;
43793;SDS011;29414;44.798;20.366;2023-06-14T05:23:01;7.03;;;4.55;;
43793;SDS011;29414;44.798;20.366;2023-06-14T05:27:01;6.07;;;3.25;;
43793;SDS011;29414;44.798;20.366;2023-06-14T05:31:02;6.25;;;3.00;;
43793;SDS011;29414;44.798;20.366;2023-06-14T05:35:02;4.50;;;2.60;;
43793;SDS011;29414;44.798;20.366;2023-06-14T05:39:02;7.43;;;2.88;;
43793;SDS011;29414;44.798;20.366;2023-06-14T05:43:03;5.15;;;2.70;;
43793;SDS011;29414;44.798;20.366;2023-06-14T05:47:03;2.95;;;1.80;;
43793;SDS011;29414;44.798;20.366;2023-06-14T05:51:03;4.35;;;2.67;;
43793;SDS011;29414;44.798;20.366;2023-06-14T05:55:04;3.90;;;2.45;;
43793;SDS011;29414;44.798;20.366;2023-06-14T05:59:05;5.85;;;2.20;;
43793;SDS011;29414;44.798;20.366;2023-06-14T06:03:05;1.88;;;1.60;;
43793;SDS011;29414;44.798;20.366;2023-06-14T06:07:08;4.70;;;2.20;;
43793;SDS011;29414;44.798;20.366;2023-06-14T06:11:08;3.90;;;2.50;;
43793;SDS011;29414;44.798;20.366;2023-06-14T06:15:08;7.13;;;2.03;;
43793;SDS011;29414;44.798;20.366;2023-06-14T06:19:12;5.03;;;1.92;;
43793;SDS011;29414;44.798;20.366;2023-06-14T06:23:12;3.70;;;2.00;;
43793;SDS011;29414;44.798;20.366;2023-06-14T06:27:12;5.07;;;1.92;;
43793;SDS011;29414;44.798;20.366;2023-06-14T06:31:12;3.28;;;2.10;;
43793;SDS011;29414;44.798;20.366;2023-06-14T06:35:13;3.78;;;1.70;;
43793;SDS011;29414;44.798;20.366;2023-06-14T06:39:13;2.47;;;1.85;;
43793;SDS011;29414;44.798;20.366;2023-06-14T06:43:15;3.42;;;2.65;;
43793;SDS011;29414;44.798;20.366;2023-06-14T06:47:17;4.63;;;2.80;;
43793;SDS011;29414;44.798;20.366;2023-06-14T06:51:17;3.03;;;2.30;;
43793;SDS011;29414;44.798;20.366;2023-06-14T06:55:17;3.28;;;2.72;;
43793;SDS011;29414;44.798;20.366;2023-06-14T06:59:18;3.88;;;2.50;;
43793;SDS011;29414;44.798;20.366;2023-06-14T07:03:18;6.85;;;2.47;;
43793;SDS011;29414;44.798;20.366;2023-06-14T07:07:19;5.40;;;3.20;;
43793;SDS011;29414;44.798;20.366;2023-06-14T07:11:20;4.03;;;2.33;;
43793;SDS011;29414;44.798;20.366;2023-06-14T07:15:20;3.80;;;2.60;;
43793;SDS011;29414;44.798;20.366;2023-06-14T07:19:20;4.13;;;2.30;;
43793;SDS011;29414;44.798;20.366;2023-06-14T07:23:21;3.40;;;2.10;;
43793;SDS011;29414;44.798;20.366;2023-06-14T07:27:21;5.30;;;1.73;;
43793;SDS011;29414;44.798;20.366;2023-06-14T07:31:21;3.66;;;1.68;;
43793;SDS011;29414;44.798;20.366;2023-06-14T07:35:22;6.53;;;2.00;;
43793;SDS011;29414;44.798;20.366;2023-06-14T07:39:22;4.85;;;2.17;;
43793;SDS011;29414;44.798;20.366;2023-06-14T07:43:23;7.13;;;2.55;;
43793;SDS011;29414;44.798;20.366;2023-06-14T07:47:23;2.38;;;2.03;;
43793;SDS011;29414;44.798;20.366;2023-06-14T07:51:23;2.52;;;2.28;;
43793;SDS011;29414;44.798;20.366;2023-06-14T07:55:24;2.53;;;1.85;;
43793;SDS011;29414;44.798;20.366;2023-06-14T07:59:25;5.10;;;2.22;;
43793;SDS011;29414;44.798;20.366;2023-06-14T08:03:25;4.97;;;1.73;;
43793;SDS011;29414;44.798;20.366;2023-06-14T08:07:26;2.38;;;2.10;;
43793;SDS011;29414;44.798;20.366;2023-06-14T08:11:26;2.55;;;2.22;;
43793;SDS011;29414;44.798;20.366;2023-06-14T08:15:27;4.60;;;3.00;;
43793;SDS011;29414;44.798;20.366;2023-06-14T08:19:27;6.28;;;1.90;;
43793;SDS011;29414;44.798;20.366;2023-06-14T08:23:28;4.97;;;2.20;;
43793;SDS011;29414;44.798;20.366;2023-06-14T08:27:28;6.75;;;2.30;;
43793;SDS011;29414;44.798;20.366;2023-06-14T08:31:29;4.13;;;2.53;;
43793;SDS011;29414;44.798;20.366;2023-06-14T08:35:29;2.46;;;2.24;;
43793;SDS011;29414;44.798;20.366;2023-06-14T08:39:29;3.58;;;2.20;;
43793;SDS011;29414;44.798;20.366;2023-06-14T08:43:30;5.92;;;2.80;;
43793;SDS011;29414;44.798;20.366;2023-06-14T08:47:30;3.38;;;2.22;;
43793;SDS011;29414;44.798;20.366;2023-06-14T08:51:36;4.53;;;2.88;;
43793;SDS011;29414;44.798;20.366;2023-06-14T08:55:37;4.78;;;2.38;;
43793;SDS011;29414;44.798;20.366;2023-06-14T08:59:39;2.90;;;2.35;;
43793;SDS011;29414;44.798;20.366;2023-06-14T09:07:45;3.65;;;2.55;;
43793;SDS011;29414;44.798;20.366;2023-06-14T09:11:52;5.55;;;3.10;;
43793;SDS011;29414;44.798;20.366;2023-06-14T09:15:52;5.05;;;2.70;;
43793;SDS011;29414;44.798;20.366;2023-06-14T09:19:54;6.40;;;2.25;;
43793;SDS011;29414;44.798;20.366;2023-06-14T09:23:58;2.72;;;2.22;;
43793;SDS011;29414;44.798;20.366;2023-06-14T09:27:58;3.13;;;1.60;;
43793;SDS011;29414;44.798;20.366;2023-06-14T09:31:59;5.38;;;3.03;;
43793;SDS011;29414;44.798;20.366;2023-06-14T09:35:59;8.73;;;3.75;;
43793;SDS011;29414;44.798;20.366;2023-06-14T09:40:00;4.40;;;2.17;;
43793;SDS011;29414;44.798;20.366;2023-06-14T09:44:00;3.50;;;2.10;;
43793;SDS011;29414;44.798;20.366;2023-06-14T09:48:02;4.65;;;2.25;;
43793;SDS011;29414;44.798;20.366;2023-06-14T09:52:03;4.13;;;1.58;;
43793;SDS011;29414;44.798;20.366;2023-06-14T09:56:04;3.58;;;1.63;;
43793;SDS011;29414;44.798;20.366;2023-06-14T10:00:05;13.88;;;2.40;;
43793;SDS011;29414;44.798;20.366;2023-06-14T10:04:10;2.17;;;1.25;;
43793;SDS011;29414;44.798;20.366;2023-06-14T10:08:16;4.88;;;1.30;;
43793;SDS011;29414;44.798;20.366;2023-06-14T10:12:17;2.50;;;1.48;;
43793;SDS011;29414;44.798;20.366;2023-06-14T10:16:32;3.37;;;1.43;;
43793;SDS011;29414;44.798;20.366;2023-06-14T10:20:35;3.67;;;1.30;;
43793;SDS011;29414;44.798;20.366;2023-06-14T10:24:39;1.98;;;1.35;;
43793;SDS011;29414;44.798;20.366;2023-06-14T10:28:40;1.83;;;1.70;;
43793;SDS011;29414;44.798;20.366;2023-06-14T10:37:16;1.65;;;1.55;;
43793;SDS011;29414;44.798;20.366;2023-06-14T10:41:17;3.13;;;2.10;;
43793;SDS011;29414;44.798;20.366;2023-06-14T10:45:18;6.13;;;2.03;;
43793;SDS011;29414;44.798;20.366;2023-06-14T10:49:18;3.78;;;1.85;;
43793;SDS011;29414;44.798;20.366;2023-06-14T10:53:22;2.92;;;1.88;;
43793;SDS011;29414;44.798;20.366;2023-06-14T10:57:24;6.05;;;1.70;;
43793;SDS011;29414;44.798;20.366;2023-06-14T11:01:36;2.30;;;1.60;;
43793;SDS011;29414;44.798;20.366;2023-06-14T11:05:56;2.95;;;1.45;;
43793;SDS011;29414;44.798;20.366;2023-06-14T11:10:39;6.68;;;1.58;;
43793;SDS011;29414;44.798;20.366;2023-06-14T11:14:19;2.63;;;1.65;;
43793;SDS011;29414;44.798;20.366;2023-06-14T11:18:21;4.32;;;1.45;;
43793;SDS011;29414;44.798;20.366;2023-06-14T11:22:24;7.72;;;1.80;;
43793;SDS011;29414;44.798;20.366;2023-06-14T11:26:25;2.97;;;1.67;;
43793;SDS011;29414;44.798;20.366;2023-06-14T11:30:26;2.88;;;2.05;;
43793;SDS011;29414;44.798;20.366;2023-06-14T11:34:26;2.80;;;1.85;;
43793;SDS011;29414;44.798;20.366;2023-06-14T11:38:27;4.45;;;2.15;;
43793;SDS011;29414;44.798;20.366;2023-06-14T11:42:27;3.05;;;2.08;;
43793;SDS011;29414;44.798;20.366;2023-06-14T11:46:30;2.70;;;1.77;;
43793;SDS011;29414;44.798;20.366;2023-06-14T11:50:30;1.85;;;1.73;;
43793;SDS011;29414;44.798;20.366;2023-06-14T11:54:31;3.10;;;1.92;;
43793;SDS011;29414;44.798;20.366;2023-06-14T11:58:32;2.65;;;1.85;;
43793;SDS011;29414;44.798;20.366;2023-06-14T12:02:32;2.33;;;2.00;;
43793;SDS011;29414;44.798;20.366;2023-06-14T12:06:33;4.20;;;2.47;;
43793;SDS011;29414;44.798;20.366;2023-06-14T12:10:40;2.40;;;1.50;;
43793;SDS011;29414;44.798;20.366;2023-06-14T12:14:41;1.88;;;1.77;;
43793;SDS011;29414;44.798;20.366;2023-06-14T12:18:42;1.75;;;1.60;;
43793;SDS011;29414;44.798;20.366;2023-06-14T12:22:52;2.00;;;1.80;;
43793;SDS011;29414;44.798;20.366;2023-06-14T12:26:53;3.15;;;1.40;;
43793;SDS011;29414;44.798;20.366;2023-06-14T12:30:53;2.60;;;1.52;;
43793;SDS011;29414;44.798;20.366;2023-06-14T12:34:53;2.22;;;2.03;;
43793;SDS011;29414;44.798;20.366;2023-06-14T12:38:53;2.35;;;1.98;;
43793;SDS011;29414;44.798;20.366;2023-06-14T12:42:54;2.00;;;1.90;;
43793;SDS011;29414;44.798;20.366;2023-06-14T12:46:54;3.08;;;1.73;;
43793;SDS011;29414;44.798;20.366;2023-06-14T12:50:55;5.30;;;1.98;;
43793;SDS011;29414;44.798;20.366;2023-06-14T12:54:55;2.60;;;1.70;;
43793;SDS011;29414;44.798;20.366;2023-06-14T12:58:55;2.40;;;1.83;;
43793;SDS011;29414;44.798;20.366;2023-06-14T13:02:56;1.52;;;1.42;;
43793;SDS011;29414;44.798;20.366;2023-06-14T13:06:56;2.13;;;1.88;;
43793;SDS011;29414;44.798;20.366;2023-06-14T13:10:57;4.03;;;1.85;;
43793;SDS011;29414;44.798;20.366;2023-06-14T13:14:57;1.73;;;1.63;;
43793;SDS011;29414;44.798;20.366;2023-06-14T13:18:57;7.20;;;2.25;;
43793;SDS011;29414;44.798;20.366;2023-06-14T13:22:58;2.05;;;1.85;;
43793;SDS011;29414;44.798;20.366;2023-06-14T13:26:59;1.60;;;1.50;;
43793;SDS011;29414;44.798;20.366;2023-06-14T13:30:59;2.97;;;1.70;;
43793;SDS011;29414;44.798;20.366;2023-06-14T13:35:00;3.15;;;1.92;;
43793;SDS011;29414;44.798;20.366;2023-06-14T13:39:01;2.40;;;2.20;;
43793;SDS011;29414;44.798;20.366;2023-06-14T13:43:01;2.17;;;1.48;;
43793;SDS011;29414;44.798;20.366;2023-06-14T13:47:01;3.40;;;1.63;;
43793;SDS011;29414;44.798;20.366;2023-06-14T13:51:02;7.05;;;2.30;;
43793;SDS011;29414;44.798;20.366;2023-06-14T13:55:04;9.00;;;1.90;;
43793;SDS011;29414;44.798;20.366;2023-06-14T13:59:05;5.88;;;1.70;;
43793;SDS011;29414;44.798;20.366;2023-06-14T14:03:05;1.80;;;1.70;;
43793;SDS011;29414;44.798;20.366;2023-06-14T14:07:06;3.38;;;1.85;;
43793;SDS011;29414;44.798;20.366;2023-06-14T14:11:06;3.25;;;2.15;;
43793;SDS011;29414;44.798;20.366;2023-06-14T14:15:07;5.20;;;1.50;;
43793;SDS011;29414;44.798;20.366;2023-06-14T14:19:12;5.03;;;1.90;;
43793;SDS011;29414;44.798;20.366;2023-06-14T14:23:13;3.70;;;2.30;;
43793;SDS011;29414;44.798;20.366;2023-06-14T14:27:13;2.45;;;1.83;;
43793;SDS011;29414;44.798;20.366;2023-06-14T14:31:13;2.00;;;1.63;;
43793;SDS011;29414;44.798;20.366;2023-06-14T14:35:13;4.88;;;2.15;;
43793;SDS011;29414;44.798;20.366;2023-06-14T14:39:14;2.28;;;2.00;;
43793;SDS011;29414;44.798;20.366;2023-06-14T14:43:14;3.78;;;2.03;;
43793;SDS011;29414;44.798;20.366;2023-06-14T14:47:14;4.68;;;2.55;;
43793;SDS011;29414;44.798;20.366;2023-06-14T14:51:15;1.95;;;1.83;;
43793;SDS011;29414;44.798;20.366;2023-06-14T14:55:15;3.70;;;2.25;;
43793;SDS011;29414;44.798;20.366;2023-06-14T14:59:15;2.08;;;1.88;;
43793;SDS011;29414;44.798;20.366;2023-06-14T15:03:16;2.50;;;2.30;;
43793;SDS011;29414;44.798;20.366;2023-06-14T15:07:16;2.28;;;2.17;;
43793;SDS011;29414;44.798;20.366;2023-06-14T15:11:16;3.92;;;2.72;;
43793;SDS011;29414;44.798;20.366;2023-06-14T15:15:16;7.53;;;2.35;;
43793;SDS011;29414;44.798;20.366;2023-06-14T15:19:20;3.08;;;2.75;;
43793;SDS011;29414;44.798;20.366;2023-06-14T15:23:20;5.18;;;3.00;;
43793;SDS011;29414;44.798;20.366;2023-06-14T15:27:20;2.50;;;2.20;;
43793;SDS011;29414;44.798;20.366;2023-06-14T15:31:21;4.90;;;2.78;;
43793;SDS011;29414;44.798;20.366;2023-06-14T15:35:23;2.80;;;2.60;;
43793;SDS011;29414;44.798;20.366;2023-06-14T15:39:23;2.97;;;2.63;;
43793;SDS011;29414;44.798;20.366;2023-06-14T15:43:24;3.63;;;2.40;;
43793;SDS011;29414;44.798;20.366;2023-06-14T15:47:24;3.08;;;2.83;;
43793;SDS011;29414;44.798;20.366;2023-06-14T15:51:24;4.30;;;2.28;;
43793;SDS011;29414;44.798;20.366;2023-06-14T15:55:24;4.60;;;2.42;;
43793;SDS011;29414;44.798;20.366;2023-06-14T15:59:25;5.10;;;3.70;;
43793;SDS011;29414;44.798;20.366;2023-06-14T16:03:28;3.58;;;3.35;;
43793;SDS011;29414;44.798;20.366;2023-06-14T16:07:28;3.80;;;3.50;;
43793;SDS011;29414;44.798;20.366;2023-06-14T16:11:28;3.58;;;3.28;;
43793;SDS011;29414;44.798;20.366;2023-06-14T16:15:29;3.33;;;3.03;;
43793;SDS011;29414;44.798;20.366;2023-06-14T16:19:29;8.77;;;4.00;;
43793;SDS011;29414;44.798;20.366;2023-06-14T16:23:29;13.82;;;3.97;;
43793;SDS011;29414;44.798;20.366;2023-06-14T16:27:30;3.25;;;3.03;;
43793;SDS011;29414;44.798;20.366;2023-06-14T16:31:30;4.30;;;3.17;;
43793;SDS011;29414;44.798;20.366;2023-06-14T16:35:30;6.25;;;3.10;;
43793;SDS011;29414;44.798;20.366;2023-06-14T16:39:31;4.85;;;3.22;;
43793;SDS011;29414;44.798;20.366;2023-06-14T16:43:31;3.97;;;3.67;;
43793;SDS011;29414;44.798;20.366;2023-06-14T16:47:32;3.60;;;3.00;;
43793;SDS011;29414;44.798;20.366;2023-06-14T16:51:32;5.45;;;3.70;;
43793;SDS011;29414;44.798;20.366;2023-06-14T16:55:41;5.15;;;3.72;;
43793;SDS011;29414;44.798;20.366;2023-06-14T16:59:41;3.70;;;3.25;;
43793;SDS011;29414;44.798;20.366;2023-06-14T17:03:41;5.85;;;3.80;;
43793;SDS011;29414;44.798;20.366;2023-06-14T17:07:42;5.13;;;4.07;;
43793;SDS011;29414;44.798;20.366;2023-06-14T17:11:42;4.38;;;3.85;;
43793;SDS011;29414;44.798;20.366;2023-06-14T17:15:42;4.35;;;3.33;;
43793;SDS011;29414;44.798;20.366;2023-06-14T17:19:44;5.07;;;3.38;;
43793;SDS011;29414;44.798;20.366;2023-06-14T17:23:45;4.75;;;4.03;;
43793;SDS011;29414;44.798;20.366;2023-06-14T17:27:45;3.75;;;3.42;;
43793;SDS011;29414;44.798;20.366;2023-06-14T17:31:45;6.88;;;3.63;;
43793;SDS011;29414;44.798;20.366;2023-06-14T17:35:45;7.07;;;3.97;;
43793;SDS011;29414;44.798;20.366;2023-06-14T17:39:46;4.88;;;3.40;;
43793;SDS011;29414;44.798;20.366;2023-06-14T17:43:46;3.76;;;3.40;;
43793;SDS011;29414;44.798;20.366;2023-06-14T17:47:46;8.20;;;3.45;;
43793;SDS011;29414;44.798;20.366;2023-06-14T17:51:47;4.97;;;3.20;;
43793;SDS011;29414;44.798;20.366;2023-06-14T17:55:47;4.82;;;3.15;;
43793;SDS011;29414;44.798;20.366;2023-06-14T17:59:48;4.20;;;3.42;;
43793;SDS011;29414;44.798;20.366;2023-06-14T18:03:48;2.95;;;2.75;;
43793;SDS011;29414;44.798;20.366;2023-06-14T18:07:48;4.50;;;3.30;;
43793;SDS011;29414;44.798;20.366;2023-06-14T18:11:48;6.50;;;2.56;;
43793;SDS011;29414;44.798;20.366;2023-06-14T18:15:49;3.25;;;2.83;;
43793;SDS011;29414;44.798;20.366;2023-06-14T18:19:49;4.60;;;2.60;;
43793;SDS011;29414;44.798;20.366;2023-06-14T18:23:49;4.22;;;2.42;;
43793;SDS011;29414;44.798;20.366;2023-06-14T18:27:54;3.33;;;3.03;;
43793;SDS011;29414;44.798;20.366;2023-06-14T18:31:54;4.32;;;2.78;;
43793;SDS011;29414;44.798;20.366;2023-06-14T18:35:56;3.60;;;2.88;;
43793;SDS011;29414;44.798;20.366;2023-06-14T18:39:57;7.95;;;2.60;;
43793;SDS011;29414;44.798;20.366;2023-06-14T18:43:57;4.43;;;2.63;;
43793;SDS011;29414;44.798;20.366;2023-06-14T18:47:58;3.97;;;2.80;;
43793;SDS011;29414;44.798;20.366;2023-06-14T18:51:59;3.20;;;2.30;;
43793;SDS011;29414;44.798;20.366;2023-06-14T18:55:59;3.28;;;2.63;;
43793;SDS011;29414;44.798;20.366;2023-06-14T18:59:59;3.88;;;2.40;;
43793;SDS011;29414;44.798;20.366;2023-06-14T19:03:59;8.60;;;2.50;;
43793;SDS011;29414;44.798;20.366;2023-06-14T19:08:01;6.57;;;2.70;;
43793;SDS011;29414;44.798;20.366;2023-06-14T19:12:01;6.88;;;3.20;;
43793;SDS011;29414;44.798;20.366;2023-06-14T19:16:01;7.07;;;3.25;;
43793;SDS011;29414;44.798;20.366;2023-06-14T19:20:02;3.55;;;2.35;;
43793;SDS011;29414;44.798;20.366;2023-06-14T19:24:02;3.78;;;2.38;;
43793;SDS011;29414;44.798;20.366;2023-06-14T19:28:03;5.00;;;2.78;;
43793;SDS011;29414;44.798;20.366;2023-06-14T19:32:05;2.28;;;2.08;;
43793;SDS011;29414;44.798;20.366;2023-06-14T19:36:06;3.50;;;3.20;;
43793;SDS011;29414;44.798;20.366;2023-06-14T19:40:06;8.30;;;3.25;;
43793;SDS011;29414;44.798;20.366;2023-06-14T19:44:07;3.35;;;2.90;;
43793;SDS011;29414;44.798;20.366;2023-06-14T19:48:07;4.35;;;3.20;;
43793;SDS011;29414;44.798;20.366;2023-06-14T19:52:07;4.95;;;3.53;;
43793;SDS011;29414;44.798;20.366;2023-06-14T19:56:08;4.00;;;3.33;;
43793;SDS011;29414;44.798;20.366;2023-06-14T20:00:08;3.75;;;3.45;;
43793;SDS011;29414;44.798;20.366;2023-06-14T20:04:09;4.72;;;3.50;;
43793;SDS011;29414;44.798;20.366;2023-06-14T20:08:09;3.92;;;2.72;;
43793;SDS011;29414;44.798;20.366;2023-06-14T20:12:09;5.95;;;3.25;;
43793;SDS011;29414;44.798;20.366;2023-06-14T20:16:10;4.40;;;3.20;;
43793;SDS011;29414;44.798;20.366;2023-06-14T20:20:10;4.28;;;3.05;;
43793;SDS011;29414;44.798;20.366;2023-06-14T20:24:11;5.90;;;3.50;;
43793;SDS011;29414;44.798;20.366;2023-06-14T20:28:11;8.00;;;4.45;;
43793;SDS011;29414;44.798;20.366;2023-06-14T20:32:11;8.15;;;3.70;;
43793;SDS011;29414;44.798;20.366;2023-06-14T20:36:12;4.47;;;3.90;;
43793;SDS011;29414;44.798;20.366;2023-06-14T20:40:18;7.10;;;4.50;;
43793;SDS011;29414;44.798;20.366;2023-06-14T20:44:20;6.13;;;4.03;;
43793;SDS011;29414;44.798;20.366;2023-06-14T20:48:21;7.63;;;4.90;;
43793;SDS011;29414;44.798;20.366;2023-06-14T20:52:21;4.60;;;3.63;;
43793;SDS011;29414;44.798;20.366;2023-06-14T20:56:22;7.40;;;4.32;;
43793;SDS011;29414;44.798;20.366;2023-06-14T21:00:22;5.40;;;3.38;;
43793;SDS011;29414;44.798;20.366;2023-06-14T21:04:22;5.45;;;3.20;;
43793;SDS011;29414;44.798;20.366;2023-06-14T21:08:22;14.73;;;4.25;;
43793;SDS011;29414;44.798;20.366;2023-06-14T21:12:23;5.38;;;3.40;;
43793;SDS011;29414;44.798;20.366;2023-06-14T21:16:26;9.75;;;4.25;;
43793;SDS011;29414;44.798;20.366;2023-06-14T21:20:26;6.90;;;4.03;;
43793;SDS011;29414;44.798;20.366;2023-06-14T21:24:26;7.20;;;4.75;;
43793;SDS011;29414;44.798;20.366;2023-06-14T21:28:27;5.25;;;3.65;;
43793;SDS011;29414;44.798;20.366;2023-06-14T21:32:27;4.75;;;3.97;;
43793;SDS011;29414;44.798;20.366;2023-06-14T21:36:27;4.05;;;3.67;;
43793;SDS011;29414;44.798;20.366;2023-06-14T21:40:27;7.10;;;5.43;;
43793;SDS011;29414;44.798;20.366;2023-06-14T21:44:28;7.15;;;5.13;;
43793;SDS011;29414;44.798;20.366;2023-06-14T21:48:28;8.60;;;5.52;;
43793;SDS011;29414;44.798;20.366;2023-06-14T21:52:28;6.60;;;5.55;;
43793;SDS011;29414;44.798;20.366;2023-06-14T21:56:34;5.88;;;4.97;;
43793;SDS011;29414;44.798;20.366;2023-06-14T22:00:35;6.35;;;4.78;;
43793;SDS011;29414;44.798;20.366;2023-06-14T22:04:35;6.18;;;4.10;;
43793;SDS011;29414;44.798;20.366;2023-06-14T22:08:35;6.05;;;5.20;;
43793;SDS011;29414;44.798;20.366;2023-06-14T22:12:37;7.10;;;4.75;;
43793;SDS011;29414;44.798;20.366;2023-06-14T22:16:39;6.72;;;4.57;;
43793;SDS011;29414;44.798;20.366;2023-06-14T22:20:39;8.60;;;4.75;;
43793;SDS011;29414;44.798;20.366;2023-06-14T22:24:44;6.00;;;4.65;;
43793;SDS011;29414;44.798;20.366;2023-06-14T22:28:45;6.38;;;5.18;;
43793;SDS011;29414;44.798;20.366;2023-06-14T22:32:48;7.75;;;5.20;;
43793;SDS011;29414;44.798;20.366;2023-06-14T22:36:50;16.20;;;8.52;;
43793;SDS011;29414;44.798;20.366;2023-06-14T22:40:52;12.20;;;7.95;;
43793;SDS011;29414;44.798;20.366;2023-06-14T22:44:53;9.80;;;6.57;;
43793;SDS011;29414;44.798;20.366;2023-06-14T22:48:53;7.53;;;5.85;;
43793;SDS011;29414;44.798;20.366;2023-06-14T22:52:54;5.93;;;4.72;;
43793;SDS011;29414;44.798;20.366;2023-06-14T22:56:54;6.90;;;5.36;;
43793;SDS011;29414;44.798;20.366;2023-06-14T23:00:54;9.55;;;5.40;;
43793;SDS011;29414;44.798;20.366;2023-06-14T23:04:55;7.45;;;6.13;;
43793;SDS011;29414;44.798;20.366;2023-06-14T23:08:55;7.58;;;5.94;;
43793;SDS011;29414;44.798;20.366;2023-06-14T23:12:56;7.28;;;5.47;;
43793;SDS011;29414;44.798;20.366;2023-06-14T23:16:57;6.50;;;5.72;;
43793;SDS011;29414;44.798;20.366;2023-06-14T23:20:58;7.20;;;5.63;;
43793;SDS011;29414;44.798;20.366;2023-06-14T23:24:58;6.80;;;5.96;;
43793;SDS011;29414;44.798;20.366;2023-06-14T23:28:58;6.88;;;5.30;;
43793;SDS011;29414;44.798;20.366;2023-06-14T23:33:05;8.38;;;6.43;;
43793;SDS011;29414;44.798;20.366;2023-06-14T23:37:05;5.90;;;5.28;;
43793;SDS011;29414;44.798;20.366;2023-06-14T23:41:05;7.10;;;5.63;;
43793;SDS011;29414;44.798;20.366;2023-06-14T23:45:06;9.73;;;5.43;;
43793;SDS011;29414;44.798;20.366;2023-06-14T23:49:06;5.30;;;4.88;;
43793;SDS011;29414;44.798;20.366;2023-06-14T23:53:07;7.25;;;5.70;;
43793;SDS011;29414;44.798;20.366;2023-06-14T23:57:07;7.70;;;4.88;;
